createdAt,value
2023-03-21T00:00:46.123Z,1023.57
2023-03-21T00:03:13.631Z,1023.62
2023-03-21T00:05:42.392Z,1023.59
2023-03-21T00:08:10.480Z,1023.65
2023-03-21T00:10:43.444Z,1023.52
2023-03-21T00:13:12.206Z,1023.59
2023-03-21T00:15:44.363Z,1023.65
2023-03-21T00:18:19.940Z,1023.60
2023-03-21T00:21:15.737Z,1023.71
2023-03-21T00:23:44.046Z,1023.72
2023-03-21T00:26:11.030Z,1023.70
2023-03-21T00:28:40.498Z,1023.73
2023-03-21T00:31:07.500Z,1023.66
2023-03-21T00:33:34.455Z,1023.61
2023-03-21T00:36:05.573Z,1023.61
2023-03-21T00:38:32.717Z,1023.54
2023-03-21T00:41:04.607Z,1023.54
2023-03-21T00:43:38.827Z,1023.55
2023-03-21T00:46:06.249Z,1023.53
2023-03-21T00:48:32.989Z,1023.51
2023-03-21T00:50:59.880Z,1023.55
2023-03-21T00:53:28.506Z,1023.47
2023-03-21T00:55:55.258Z,1023.49
2023-03-21T00:58:21.983Z,1023.41
2023-03-21T01:00:50.146Z,1023.37
2023-03-21T01:03:24.789Z,1023.40
2023-03-21T01:05:52.911Z,1023.36
2023-03-21T01:08:27.922Z,1023.39
2023-03-21T01:11:02.127Z,1023.36
2023-03-21T01:13:28.928Z,1023.32
2023-03-21T01:15:57.943Z,1023.36
2023-03-21T01:18:27.256Z,1023.43
2023-03-21T01:20:55.291Z,1023.28
2023-03-21T01:23:22.353Z,1023.18
2023-03-21T01:25:50.879Z,1023.17
2023-03-21T01:28:17.643Z,1023.17
2023-03-21T01:30:48.462Z,1023.09
2023-03-21T01:33:17.781Z,1023.23
2023-03-21T01:35:55.130Z,1023.28
2023-03-21T01:38:24.511Z,1023.17
2023-03-21T01:40:51.841Z,1023.17
2023-03-21T01:43:24.896Z,1023.09
2023-03-21T01:46:30.176Z,1023.12
2023-03-21T01:49:04.495Z,1023.12
2023-03-21T01:51:36.356Z,1023.07
2023-03-21T01:54:04.567Z,1023.15
2023-03-21T01:56:36.096Z,1023.21
2023-03-21T01:59:08.420Z,1023.14
2023-03-21T02:01:36.312Z,1023.26
2023-03-21T02:04:05.146Z,1023.15
2023-03-21T02:06:38.203Z,1023.17
2023-03-21T02:09:08.876Z,1023.20
2023-03-21T02:11:37.942Z,1023.23
2023-03-21T02:14:07.018Z,1023.13
2023-03-21T02:16:46.157Z,1023.13
2023-03-21T02:22:33.882Z,1023.13
2023-03-21T02:25:36.228Z,1023.16
2023-03-21T02:28:10.020Z,1023.23
2023-03-21T02:31:05.359Z,1023.30
2023-03-21T02:33:59.984Z,1023.33
2023-03-21T02:36:50.730Z,1023.20
2023-03-21T02:39:24.767Z,1023.25
2023-03-21T02:41:59.389Z,1023.18
2023-03-21T02:44:32.010Z,1023.14
2023-03-21T02:47:06.267Z,1023.05
2023-03-21T02:49:40.767Z,1023.05
2023-03-21T02:52:18.672Z,1022.95
2023-03-21T02:54:50.753Z,1022.93
2023-03-21T02:57:19.437Z,1022.90
2023-03-21T02:59:55.495Z,1022.91
2023-03-21T03:02:28.320Z,1023.02
2023-03-21T03:04:55.168Z,1022.95
2023-03-21T03:07:36.040Z,1022.93
2023-03-21T03:10:15.117Z,1022.95
2023-03-21T03:12:51.963Z,1022.90
2023-03-21T03:15:29.558Z,1022.87
2023-03-21T03:18:02.299Z,1022.96
2023-03-21T03:20:38.661Z,1022.85
2023-03-21T03:23:17.933Z,1022.89
2023-03-21T03:25:50.081Z,1022.90
2023-03-21T03:28:20.632Z,1022.88
2023-03-21T03:31:07.065Z,1022.88
2023-03-21T03:33:37.089Z,1022.94
2023-03-21T03:36:07.105Z,1022.85
2023-03-21T03:38:38.802Z,1022.86
2023-03-21T03:41:10.603Z,1022.90
2023-03-21T03:43:43.655Z,1022.92
2023-03-21T03:46:16.336Z,1022.97
2023-03-21T03:48:46.895Z,1022.96
2023-03-21T03:51:20.773Z,1023.10
2023-03-21T03:53:53.900Z,1023.01
2023-03-21T03:56:21.450Z,1023.02
2023-03-21T03:58:49.117Z,1023.01
2023-03-21T04:01:16.017Z,1023.03
2023-03-21T04:03:50.566Z,1022.93
2023-03-21T04:06:19.837Z,1022.92
2023-03-21T04:08:46.602Z,1022.98
2023-03-21T04:11:15.571Z,1022.92
2023-03-21T04:13:42.471Z,1022.94
2023-03-21T04:16:10.154Z,1023.07
2023-03-21T04:18:37.095Z,1023.08
2023-03-21T04:21:08.028Z,1023.12
2023-03-21T04:23:34.848Z,1023.15
2023-03-21T04:26:01.637Z,1023.17
2023-03-21T04:28:29.898Z,1023.23
2023-03-21T04:31:03.529Z,1023.28
2023-03-21T04:33:33.499Z,1023.28
2023-03-21T04:36:00.331Z,1023.28
2023-03-21T04:38:27.188Z,1023.21
2023-03-21T04:40:53.918Z,1023.26
2023-03-21T04:43:20.794Z,1023.31
2023-03-21T04:45:49.030Z,1023.19
2023-03-21T04:48:16.367Z,1023.18
2023-03-21T04:50:43.229Z,1023.23
2023-03-21T04:53:10.018Z,1023.22
2023-03-21T04:55:37.055Z,1023.15
2023-03-21T04:58:04.672Z,1023.07
2023-03-21T05:00:31.694Z,1023.11
2023-03-21T05:02:59.849Z,1023.11
2023-03-21T05:05:26.699Z,1023.10
2023-03-21T05:07:53.525Z,1023.12
2023-03-21T05:10:20.617Z,1023.29
2023-03-21T05:12:47.368Z,1023.20
2023-03-21T05:15:14.112Z,1023.14
2023-03-21T05:17:40.871Z,1023.00
2023-03-21T05:20:10.477Z,1023.17
2023-03-21T05:22:37.261Z,1023.18
2023-03-21T05:25:04.443Z,1023.28
2023-03-21T05:27:31.183Z,1023.32
2023-03-21T05:29:57.942Z,1023.35
2023-03-21T05:32:24.970Z,1023.43
2023-03-21T05:34:51.884Z,1023.45
2023-03-21T05:37:20.534Z,1023.55
2023-03-21T05:39:47.405Z,1023.60
2023-03-21T05:42:15.398Z,1023.62
2023-03-21T05:44:43.014Z,1023.63
2023-03-21T05:47:09.895Z,1023.64
2023-03-21T05:49:36.706Z,1023.67
2023-03-21T05:52:03.668Z,1023.60
2023-03-21T05:54:32.139Z,1023.65
2023-03-21T05:56:58.899Z,1023.66
2023-03-21T05:59:25.776Z,1023.72
2023-03-21T06:01:52.920Z,1023.64
2023-03-21T06:04:19.776Z,1023.65
2023-03-21T06:06:46.789Z,1023.65
2023-03-21T06:09:14.092Z,1023.62
2023-03-21T06:11:48.338Z,1023.62
2023-03-21T06:14:15.153Z,1023.60
2023-03-21T06:16:41.928Z,1023.43
2023-03-21T06:19:08.720Z,1023.51
2023-03-21T06:21:35.530Z,1023.44
2023-03-21T06:24:02.703Z,1023.51
2023-03-21T06:26:29.698Z,1023.52
2023-03-21T06:28:57.911Z,1023.54
2023-03-21T06:31:24.800Z,1023.41
2023-03-21T06:33:51.709Z,1023.35
2023-03-21T06:36:19.583Z,1023.32
2023-03-21T06:38:46.360Z,1023.27
2023-03-21T06:41:13.688Z,1023.08
2023-03-21T06:43:40.564Z,1023.00
2023-03-21T06:46:10.083Z,1023.00
2023-03-21T06:48:39.444Z,1023.02
2023-03-21T06:51:10.049Z,1022.99
2023-03-21T06:53:36.959Z,1022.93
2023-03-21T06:56:05.273Z,1022.91
2023-03-21T06:58:32.546Z,1022.96
2023-03-21T07:01:02.774Z,1022.83
2023-03-21T07:03:31.387Z,1022.70
2023-03-21T07:05:58.275Z,1022.61
2023-03-21T07:08:28.989Z,1022.48
2023-03-21T07:11:00.803Z,1022.28
2023-03-21T07:13:27.816Z,1022.03
2023-03-21T07:15:55.703Z,1021.91
2023-03-21T07:18:22.752Z,1021.57
2023-03-21T07:20:51.867Z,1021.29
2023-03-21T07:23:20.060Z,1021.11
2023-03-21T07:25:48.033Z,1020.94
2023-03-21T07:28:15.340Z,1020.80
2023-03-21T07:30:42.118Z,1020.60
2023-03-21T07:33:09.030Z,1020.43
2023-03-21T07:35:36.401Z,1020.26
2023-03-21T07:38:05.546Z,1020.17
2023-03-21T07:40:33.704Z,1020.10
2023-03-21T07:45:32.308Z,1020.05
2023-03-21T07:47:59.251Z,1019.98
2023-03-21T07:50:29.432Z,1019.92
2023-03-21T07:52:56.406Z,1019.81
2023-03-21T07:55:24.578Z,1019.71
2023-03-21T07:57:51.753Z,1019.68
2023-03-21T08:00:19.683Z,1019.59
2023-03-21T08:02:46.524Z,1019.59
2023-03-21T08:05:13.555Z,1019.55
2023-03-21T08:07:40.623Z,1019.45
2023-03-21T08:10:08.834Z,1019.40
2023-03-21T08:12:36.945Z,1019.48
2023-03-21T08:15:04.244Z,1019.40
2023-03-21T08:17:30.980Z,1019.24
2023-03-21T08:19:57.729Z,1019.16
2023-03-21T08:22:25.562Z,1019.06
2023-03-21T08:24:52.357Z,1018.96
2023-03-21T08:27:19.551Z,1018.86
2023-03-21T08:29:48.913Z,1018.81
2023-03-21T08:32:18.849Z,1018.73
2023-03-21T08:34:45.945Z,1018.69
2023-03-21T08:37:13.017Z,1018.77
2023-03-21T08:39:41.083Z,1018.63
2023-03-21T08:42:08.099Z,1018.71
2023-03-21T08:44:35.031Z,1018.76
2023-03-21T08:47:04.089Z,1018.55
2023-03-21T08:49:30.874Z,1018.51
2023-03-21T08:51:57.617Z,1018.36
2023-03-21T08:54:24.499Z,1018.38
2023-03-21T08:56:51.291Z,1018.39
2023-03-21T08:59:18.125Z,1018.21
2023-03-21T09:01:45.324Z,1018.02
2023-03-21T09:04:13.900Z,1017.84
2023-03-21T09:06:41.242Z,1017.91
2023-03-21T09:09:08.233Z,1017.88
2023-03-21T09:11:35.402Z,1017.82
2023-03-21T09:14:02.673Z,1017.70
2023-03-21T09:16:29.617Z,1017.66
2023-03-21T09:18:56.453Z,1017.68
2023-03-21T09:21:25.679Z,1017.61
2023-03-21T09:23:52.538Z,1017.59
2023-03-21T09:26:20.117Z,1017.46
2023-03-21T09:28:47.277Z,1017.39
2023-03-21T09:31:14.345Z,1017.40
2023-03-21T09:33:41.241Z,1017.34
2023-03-21T09:36:09.712Z,1017.24
2023-03-21T09:38:38.264Z,1017.19
2023-03-21T09:41:15.516Z,1017.33
2023-03-21T09:43:52.674Z,1017.26
2023-03-21T09:46:27.380Z,1017.13
2023-03-21T09:48:58.727Z,1017.17
2023-03-21T09:51:31.250Z,1017.02
2023-03-21T09:54:02.974Z,1016.91
2023-03-21T09:56:30.045Z,1016.90
2023-03-21T09:58:59.043Z,1017.08
2023-03-21T10:01:27.510Z,1016.79
2023-03-21T10:03:54.947Z,1016.59
2023-03-21T10:06:23.832Z,1016.48
2023-03-21T10:08:50.696Z,1016.49
2023-03-21T10:11:23.878Z,1016.63
2023-03-21T10:13:55.807Z,1016.54
2023-03-21T10:16:27.473Z,1016.38
2023-03-21T10:18:55.560Z,1016.32
2023-03-21T10:21:48.030Z,1016.25
2023-03-21T10:24:13.761Z,1016.10
2023-03-21T10:26:43.491Z,1016.05
2023-03-21T10:29:14.098Z,1015.95
2023-03-21T10:31:42.269Z,1015.95
2023-03-21T10:34:16.583Z,1015.90
2023-03-21T10:36:44.008Z,1015.84
2023-03-21T10:39:20.906Z,1015.82
2023-03-21T10:41:49.152Z,1015.80
2023-03-21T10:44:18.953Z,1015.71
2023-03-21T10:46:54.855Z,1015.59
2023-03-21T10:49:22.360Z,1015.46
2023-03-21T10:51:52.830Z,1015.43
2023-03-21T10:54:22.212Z,1015.36
2023-03-21T10:56:57.310Z,1015.31
2023-03-21T10:59:27.360Z,1015.17
2023-03-21T11:01:56.665Z,1015.17
2023-03-21T11:04:26.992Z,1015.11
2023-03-21T11:06:56.237Z,1015.03
2023-03-21T11:09:24.600Z,1015.13
2023-03-21T11:11:55.504Z,1015.08
2023-03-21T11:14:36.658Z,1015.05
2023-03-21T11:17:19.261Z,1014.94
2023-03-21T11:19:49.090Z,1014.80
2023-03-21T11:22:17.195Z,1014.75
2023-03-21T11:24:49.373Z,1014.82
2023-03-21T11:27:18.049Z,1014.61
2023-03-21T11:29:49.766Z,1014.87
2023-03-21T11:32:22.890Z,1014.62
2023-03-21T11:34:51.924Z,1014.67
2023-03-21T11:37:24.277Z,1014.75
2023-03-21T11:39:56.081Z,1014.40
2023-03-21T11:42:32.701Z,1014.40
2023-03-21T11:45:10.571Z,1014.29
2023-03-21T11:47:37.676Z,1014.49
2023-03-21T11:50:25.176Z,1014.54
2023-03-21T11:53:05.879Z,1014.76
2023-03-21T11:55:40.222Z,1014.59
2023-03-21T11:58:28.526Z,1014.58
2023-03-21T12:01:03.446Z,1014.53
2023-03-21T12:03:54.328Z,1014.39
2023-03-21T12:06:29.219Z,1014.34
2023-03-21T12:09:10.842Z,1014.46
2023-03-21T12:11:50.283Z,1014.14
2023-03-21T12:14:30.132Z,1014.02
2023-03-21T12:17:10.430Z,1013.89
2023-03-21T12:19:50.172Z,1013.84
2023-03-21T12:22:28.042Z,1013.90
2023-03-21T12:24:56.301Z,1013.78
2023-03-21T12:27:37.106Z,1013.67
2023-03-21T12:30:20.236Z,1013.61
2023-03-21T12:33:00.127Z,1013.51
2023-03-21T12:35:38.373Z,1013.47
2023-03-21T12:38:16.085Z,1013.34
2023-03-21T12:41:08.526Z,1013.27
2023-03-21T12:43:44.488Z,1013.24
2023-03-21T12:46:19.265Z,1013.20
2023-03-21T12:48:50.152Z,1013.10
2023-03-21T12:51:21.079Z,1013.15
2023-03-21T12:53:56.729Z,1013.40
2023-03-21T12:56:29.472Z,1013.19
2023-03-21T12:59:01.126Z,1013.20
2023-03-21T13:01:30.088Z,1013.05
2023-03-21T13:04:16.797Z,1013.05
2023-03-21T13:06:46.625Z,1012.88
2023-03-21T13:09:23.373Z,1012.88
2023-03-21T13:11:59.660Z,1012.76
2023-03-21T13:14:33.886Z,1012.78
2023-03-21T13:17:06.758Z,1012.78
2023-03-21T13:19:42.454Z,1012.85
2023-03-21T13:22:18.849Z,1012.90
2023-03-21T13:24:49.179Z,1012.99
2023-03-21T13:27:26.049Z,1012.95
2023-03-21T13:29:58.058Z,1012.94
2023-03-21T13:32:30.120Z,1013.08
2023-03-21T13:34:59.619Z,1012.89
2023-03-21T13:37:31.154Z,1012.92
2023-03-21T13:40:02.920Z,1012.83
2023-03-21T13:42:34.004Z,1012.86
2023-03-21T13:45:05.561Z,1012.80
2023-03-21T13:47:40.326Z,1012.76
2023-03-21T13:50:44.986Z,1012.73
2023-03-21T13:53:23.207Z,1012.62
2023-03-21T13:56:14.454Z,1012.61
2023-03-21T13:58:52.617Z,1012.60
2023-03-21T14:01:28.692Z,1012.52
2023-03-21T14:04:04.945Z,1012.49
2023-03-21T14:06:37.844Z,1012.62
2023-03-21T14:09:05.967Z,1012.51
2023-03-21T14:11:35.642Z,1012.53
2023-03-21T14:14:04.445Z,1012.69
2023-03-21T14:16:32.668Z,1012.66
2023-03-21T14:19:04.906Z,1012.70
2023-03-21T14:21:33.898Z,1012.89
2023-03-21T14:24:02.559Z,1012.87
2023-03-21T14:26:31.840Z,1012.81
2023-03-21T14:28:59.262Z,1012.71
2023-03-21T14:31:26.646Z,1012.68
2023-03-21T14:33:57.506Z,1012.65
2023-03-21T14:36:28.030Z,1012.61
2023-03-21T14:39:02.454Z,1012.60
2023-03-21T14:41:32.375Z,1012.54
2023-03-21T14:44:11.907Z,1012.50
2023-03-21T14:46:38.917Z,1012.55
2023-03-21T14:49:14.015Z,1012.50
2023-03-21T14:51:42.848Z,1012.42
2023-03-21T14:54:13.669Z,1012.43
2023-03-21T14:56:40.562Z,1012.45
2023-03-21T14:59:12.052Z,1012.44
2023-03-21T15:01:40.523Z,1012.54
2023-03-21T15:04:08.862Z,1012.46
2023-03-21T15:06:51.431Z,1012.42
2023-03-21T15:09:20.060Z,1012.49
2023-03-21T15:11:51.344Z,1012.50
2023-03-21T15:14:23.481Z,1012.48
2023-03-21T15:16:50.935Z,1012.52
2023-03-21T15:19:23.224Z,1012.57
2023-03-21T15:21:57.054Z,1012.51
2023-03-21T15:24:29.575Z,1012.62
2023-03-21T15:27:01.214Z,1012.60
2023-03-21T15:29:28.541Z,1012.58
2023-03-21T15:31:55.454Z,1012.57
2023-03-21T15:34:24.399Z,1012.55
2023-03-21T15:36:57.741Z,1012.56
2023-03-21T15:39:28.083Z,1012.56
2023-03-21T15:42:07.248Z,1012.54
2023-03-21T15:44:36.667Z,1012.64
2023-03-21T15:47:03.643Z,1012.62
2023-03-21T15:49:34.026Z,1012.62
2023-03-21T15:52:11.539Z,1012.62
2023-03-21T15:54:43.485Z,1012.58
2023-03-21T15:57:22.499Z,1012.58
2023-03-21T15:59:57.396Z,1012.64
2023-03-21T16:02:29.300Z,1012.76
2023-03-21T16:05:00.112Z,1012.84
2023-03-21T16:07:28.980Z,1012.84
2023-03-21T16:10:01.794Z,1012.88
2023-03-21T16:12:30.887Z,1012.89
2023-03-21T16:14:58.192Z,1013.12
2023-03-21T16:17:36.283Z,1013.13
2023-03-21T16:20:05.853Z,1013.14
2023-03-21T16:22:35.525Z,1013.28
2023-03-21T16:25:03.615Z,1013.38
2023-03-21T16:27:30.870Z,1013.45
2023-03-21T16:29:57.964Z,1013.57
2023-03-21T16:32:25.548Z,1013.65
2023-03-21T16:34:55.145Z,1013.74
2023-03-21T16:37:23.265Z,1013.74
2023-03-21T16:39:52.422Z,1013.80
2023-03-21T16:42:20.711Z,1013.87
2023-03-21T16:44:47.517Z,1013.97
2023-03-21T16:47:16.045Z,1014.03
2023-03-21T16:49:43.561Z,1014.28
2023-03-21T16:52:11.227Z,1014.35
2023-03-21T16:54:38.222Z,1014.43
2023-03-21T16:57:09.830Z,1014.55
2023-03-21T16:59:36.849Z,1014.68
2023-03-21T17:02:12.314Z,1014.80
2023-03-21T17:04:39.059Z,1014.96
2023-03-21T17:07:09.994Z,1015.00
2023-03-21T17:09:36.840Z,1015.10
2023-03-21T17:12:04.337Z,1015.35
2023-03-21T17:14:32.566Z,1015.36
2023-03-21T17:16:59.440Z,1015.24
2023-03-21T17:19:26.900Z,1015.44
2023-03-21T17:21:53.869Z,1015.49
2023-03-21T17:24:20.683Z,1015.67
2023-03-21T17:26:47.534Z,1015.56
2023-03-21T17:29:14.700Z,1015.72
2023-03-21T17:31:42.916Z,1015.90
2023-03-21T17:34:09.782Z,1016.10
2023-03-21T17:36:39.323Z,1016.06
2023-03-21T17:39:07.573Z,1016.20
2023-03-21T17:41:34.778Z,1016.09
2023-03-21T17:44:01.543Z,1016.09
2023-03-21T17:46:29.383Z,1016.17
2023-03-21T17:48:57.677Z,1016.27
2023-03-21T17:51:24.384Z,1016.25
2023-03-21T17:53:51.221Z,1016.34
2023-03-21T17:56:21.179Z,1016.39
2023-03-21T17:58:47.973Z,1016.45
2023-03-21T18:01:15.224Z,1016.52
2023-03-21T18:03:42.291Z,1016.54
2023-03-21T18:06:16.578Z,1016.71
2023-03-21T18:08:43.762Z,1016.74
2023-03-21T18:11:11.774Z,1016.80
2023-03-21T18:13:39.888Z,1016.80
2023-03-21T18:16:08.331Z,1016.88
2023-03-21T18:18:35.176Z,1016.94
2023-03-21T18:21:02.496Z,1017.20
2023-03-21T18:23:30.791Z,1017.15
2023-03-21T18:25:58.799Z,1017.02
2023-03-21T18:28:26.034Z,1017.02
2023-03-21T18:31:13.589Z,1017.00
2023-03-21T18:33:41.290Z,1017.02
2023-03-21T18:36:08.973Z,1016.96
2023-03-21T18:38:37.801Z,1017.00
2023-03-21T18:41:05.026Z,1017.12
2023-03-21T18:44:00.995Z,1017.07
2023-03-21T18:46:18.869Z,1017.15
2023-03-21T18:48:46.555Z,1017.15
2023-03-21T18:51:13.459Z,1017.36
2023-03-21T18:53:43.172Z,1017.39
2023-03-21T18:56:10.628Z,1017.38
2023-03-21T18:58:38.304Z,1017.26
2023-03-21T19:01:05.525Z,1017.37
2023-03-21T19:03:37.135Z,1017.46
2023-03-21T19:06:05.507Z,1017.46
2023-03-21T19:08:32.795Z,1017.42
2023-03-21T19:11:04.350Z,1017.44
2023-03-21T19:13:33.407Z,1017.55
2023-03-21T19:16:02.179Z,1017.44
2023-03-21T19:18:50.255Z,1017.50
2023-03-21T19:21:16.766Z,1017.58
2023-03-21T19:24:20.988Z,1017.72
2023-03-21T19:26:31.700Z,1017.83
2023-03-21T19:28:58.454Z,1017.77
2023-03-21T19:31:25.642Z,1017.89
2023-03-21T19:33:52.555Z,1017.91
2023-03-21T19:36:22.703Z,1017.89
2023-03-21T19:38:50.273Z,1017.94
2023-03-21T19:41:17.582Z,1018.02
2023-03-21T19:43:54.104Z,1018.02
2023-03-21T19:46:22.562Z,1018.09
2023-03-21T19:48:49.583Z,1018.03
2023-03-21T19:51:32.472Z,1018.10
2023-03-21T19:54:02.249Z,1018.09
2023-03-21T19:56:31.373Z,1018.00
2023-03-21T19:59:00.298Z,1018.00
2023-03-21T20:01:27.146Z,1018.08
2023-03-21T20:03:54.004Z,1018.05
2023-03-21T20:06:21.189Z,1018.07
2023-03-21T20:11:34.934Z,1018.01
2023-03-21T20:14:03.493Z,1018.05
2023-03-21T20:16:34.795Z,1017.98
2023-03-21T20:19:02.516Z,1017.94
2023-03-21T20:21:40.218Z,1017.98
2023-03-21T20:24:12.961Z,1017.99
2023-03-21T20:26:40.063Z,1018.02
2023-03-21T20:29:59.901Z,1018.05
2023-03-21T20:31:55.181Z,1018.08
2023-03-21T20:34:21.922Z,1018.04
2023-03-21T20:36:48.817Z,1018.05
2023-03-21T20:39:15.706Z,1018.00
2023-03-21T20:41:42.589Z,1018.03
2023-03-21T20:46:57.694Z,1018.10
2023-03-21T20:49:24.535Z,1018.11
2023-03-21T20:54:38.820Z,1018.10
2023-03-21T20:57:05.576Z,1018.11
2023-03-21T20:59:33.890Z,1018.16
2023-03-21T21:02:00.803Z,1018.10
2023-03-21T21:04:46.995Z,1018.13
2023-03-21T21:07:15.828Z,1018.13
2023-03-21T21:09:42.738Z,1018.08
2023-03-21T21:12:10.119Z,1018.15
2023-03-21T21:14:38.494Z,1018.11
2023-03-21T21:17:23.212Z,1018.12
2023-03-21T21:19:53.587Z,1018.09
2023-03-21T21:22:20.463Z,1018.06
2023-03-21T21:24:47.255Z,1018.07
2023-03-21T21:27:14.017Z,1018.01
2023-03-21T21:29:42.256Z,1017.98
2023-03-21T21:32:09.045Z,1017.93
2023-03-21T21:34:35.945Z,1017.99
2023-03-21T21:37:02.797Z,1017.98
2023-03-21T21:39:29.694Z,1017.99
2023-03-21T21:41:56.503Z,1018.02
2023-03-21T21:44:23.317Z,1018.02
2023-03-21T21:46:51.526Z,1018.03
2023-03-21T21:49:18.310Z,1018.07
2023-03-21T21:51:46.670Z,1018.05
2023-03-21T21:54:14.702Z,1018.01
2023-03-21T21:56:41.482Z,1017.99
2023-03-21T21:59:08.283Z,1018.02
2023-03-21T22:01:35.059Z,1018.07
2023-03-21T22:04:03.349Z,1018.05
2023-03-21T22:06:30.129Z,1018.15
2023-03-21T22:08:56.919Z,1018.16
2023-03-21T22:11:23.764Z,1018.11
2023-03-21T22:13:51.861Z,1018.12
2023-03-21T22:16:18.929Z,1018.21
2023-03-21T22:18:45.705Z,1018.10
2023-03-21T22:21:14.324Z,1018.04
2023-03-21T22:23:41.161Z,1018.07
2023-03-21T22:26:08.490Z,1018.07
2023-03-21T22:28:35.537Z,1017.95
2023-03-21T22:31:08.845Z,1017.99
2023-03-21T22:33:35.687Z,1017.99
2023-03-21T22:36:02.877Z,1018.09
2023-03-21T22:38:31.038Z,1018.15
2023-03-21T22:40:59.375Z,1018.17
2023-03-21T22:43:26.689Z,1018.15
2023-03-21T22:45:53.578Z,1018.18
2023-03-21T22:48:21.205Z,1018.16
2023-03-21T22:50:48.389Z,1018.08
2023-03-21T22:53:15.194Z,1018.11
2023-03-21T22:55:43.329Z,1018.08
2023-03-21T22:58:10.145Z,1018.12
2023-03-21T23:00:37.392Z,1018.10
2023-03-21T23:03:04.392Z,1018.17
2023-03-21T23:05:31.461Z,1018.17
2023-03-21T23:07:58.226Z,1018.14
2023-03-21T23:10:25.025Z,1018.16
2023-03-21T23:12:53.177Z,1018.22
2023-03-21T23:15:19.917Z,1018.17
2023-03-21T23:17:46.661Z,1018.21
2023-03-21T23:20:13.652Z,1018.21
2023-03-21T23:22:40.713Z,1018.16
2023-03-21T23:25:08.181Z,1018.27
2023-03-21T23:27:35.300Z,1018.35
2023-03-21T23:30:03.881Z,1018.40
2023-03-21T23:32:31.668Z,1018.37
2023-03-21T23:34:58.503Z,1018.42
2023-03-21T23:37:25.539Z,1018.32
2023-03-21T23:39:52.796Z,1018.32
2023-03-21T23:42:19.546Z,1018.28
2023-03-21T23:44:46.540Z,1018.24
2023-03-21T23:47:14.726Z,1018.21
2023-03-21T23:49:41.764Z,1018.16
2023-03-21T23:52:08.581Z,1018.18
2023-03-21T23:54:53.992Z,1018.21
2023-03-21T23:57:41.000Z,1018.21
